createdAt,value
2023-04-17T00:02:10.792Z,38.90
2023-04-17T00:04:38.605Z,38.85
2023-04-17T00:07:06.555Z,64.80
2023-04-17T00:09:33.882Z,72.65
2023-04-17T00:12:01.362Z,79.00
2023-04-17T00:14:28.943Z,77.35
2023-04-17T00:16:56.629Z,67.00
2023-04-17T00:19:23.894Z,74.43
2023-04-17T00:21:51.396Z,63.70
2023-04-17T00:24:18.564Z,55.33
2023-04-17T00:26:46.141Z,38.20
2023-04-17T00:29:13.404Z,38.65
2023-04-17T00:31:43.154Z,36.22
2023-04-17T00:34:10.506Z,30.20
2023-04-17T00:36:37.996Z,27.75
2023-04-17T00:39:05.785Z,29.17
2023-04-17T00:41:33.452Z,26.45
2023-04-17T00:44:00.663Z,27.35
2023-04-17T00:46:28.154Z,32.55
2023-04-17T00:48:55.514Z,31.27
2023-04-17T00:51:23.113Z,29.00
2023-04-17T00:53:52.029Z,32.03
2023-04-17T00:56:19.662Z,34.72
2023-04-17T00:58:48.126Z,30.30
2023-04-17T01:01:15.761Z,29.70
2023-04-17T01:03:44.072Z,31.15
2023-04-17T01:06:12.293Z,36.78
2023-04-17T01:08:43.884Z,29.88
2023-04-17T01:11:12.150Z,31.02
2023-04-17T01:13:49.499Z,31.05
2023-04-17T01:16:18.766Z,39.25
2023-04-17T01:18:49.737Z,34.20
2023-04-17T01:21:17.921Z,34.85
2023-04-17T01:23:52.172Z,32.72
2023-04-17T01:26:23.053Z,32.38
2023-04-17T01:28:55.360Z,35.72
2023-04-17T01:31:23.923Z,41.90
2023-04-17T01:33:52.114Z,41.25
2023-04-17T01:36:19.770Z,41.85
2023-04-17T01:38:47.102Z,38.72
2023-04-17T01:41:14.830Z,32.40
2023-04-17T01:43:46.956Z,34.90
2023-04-17T01:46:14.783Z,40.63
2023-04-17T01:48:42.014Z,36.72
2023-04-17T01:51:09.558Z,43.42
2023-04-17T01:53:38.123Z,37.97
2023-04-17T01:56:05.874Z,38.30
2023-04-17T01:58:33.150Z,37.58
2023-04-17T02:01:00.843Z,37.30
2023-04-17T02:03:28.324Z,43.85
2023-04-17T02:05:56.002Z,39.90
2023-04-17T02:08:23.345Z,40.92
2023-04-17T02:10:50.820Z,40.30
2023-04-17T02:13:18.218Z,41.30
2023-04-17T02:15:45.846Z,45.10
2023-04-17T02:18:13.639Z,54.08
2023-04-17T02:20:41.067Z,48.10
2023-04-17T02:23:08.352Z,52.58
2023-04-17T02:25:36.173Z,52.35
2023-04-17T02:28:04.673Z,53.05
2023-04-17T02:30:32.490Z,62.13
2023-04-17T02:32:59.840Z,65.70
2023-04-17T02:35:29.045Z,69.28
2023-04-17T02:37:57.845Z,72.95
2023-04-17T02:40:25.356Z,73.32
2023-04-17T02:43:01.250Z,83.57
2023-04-17T02:45:29.801Z,81.18
2023-04-17T02:47:57.219Z,87.53
2023-04-17T02:50:25.081Z,102.80
2023-04-17T02:53:04.326Z,84.80
2023-04-17T02:55:31.778Z,110.20
2023-04-17T02:57:58.977Z,81.65
2023-04-17T03:00:27.316Z,74.00
2023-04-17T03:02:54.634Z,79.05
2023-04-17T03:05:23.396Z,83.40
2023-04-17T03:07:52.203Z,77.15
2023-04-17T03:10:19.997Z,76.22
2023-04-17T03:12:47.370Z,71.65
2023-04-17T03:15:15.136Z,79.55
2023-04-17T03:17:43.089Z,96.65
2023-04-17T03:20:10.860Z,92.00
2023-04-17T03:22:38.144Z,72.93
2023-04-17T03:25:07.581Z,62.35
2023-04-17T03:27:42.758Z,55.17
2023-04-17T03:30:10.805Z,55.72
2023-04-17T03:32:38.222Z,55.50
2023-04-17T03:35:06.570Z,53.95
2023-04-17T03:37:34.528Z,54.30
2023-04-17T03:40:02.682Z,58.65
2023-04-17T03:42:30.038Z,50.97
2023-04-17T03:44:57.592Z,48.00
2023-04-17T03:47:26.162Z,49.80
2023-04-17T03:49:54.267Z,50.40
2023-04-17T03:52:21.583Z,48.25
2023-04-17T03:54:54.635Z,50.30
2023-04-17T03:57:21.880Z,45.67
2023-04-17T03:59:49.695Z,46.40
2023-04-17T04:02:17.193Z,49.92
2023-04-17T04:04:48.193Z,46.83
2023-04-17T04:07:16.272Z,62.22
2023-04-17T04:09:43.914Z,49.28
2023-04-17T04:12:11.415Z,50.92
2023-04-17T04:14:42.218Z,49.95
2023-04-17T04:17:10.727Z,46.70
2023-04-17T04:19:39.368Z,44.88
2023-04-17T04:22:07.039Z,47.53
2023-04-17T04:24:47.363Z,44.55
2023-04-17T04:27:18.737Z,45.17
2023-04-17T04:29:48.894Z,44.40
2023-04-17T04:32:18.108Z,54.00
2023-04-17T04:34:47.618Z,55.85
2023-04-17T04:37:15.717Z,51.53
2023-04-17T04:39:47.293Z,51.35
2023-04-17T04:42:22.465Z,49.05
2023-04-17T04:45:06.347Z,44.45
2023-04-17T04:47:34.899Z,41.58
2023-04-17T04:50:02.939Z,51.00
2023-04-17T04:52:31.435Z,48.80
2023-04-17T04:55:02.147Z,49.03
2023-04-17T04:57:31.304Z,42.70
2023-04-17T05:00:01.544Z,44.08
2023-04-17T05:02:37.271Z,42.90
2023-04-17T05:05:09.593Z,44.22
2023-04-17T05:07:36.882Z,44.90
2023-04-17T05:10:06.879Z,42.55
2023-04-17T05:12:37.576Z,40.75
2023-04-17T05:15:08.117Z,43.00
2023-04-17T05:17:36.534Z,41.65
2023-04-17T05:20:06.963Z,44.78
2023-04-17T05:22:36.542Z,43.85
2023-04-17T05:25:09.490Z,48.28
2023-04-17T05:27:36.817Z,49.58
2023-04-17T05:30:05.312Z,50.50
2023-04-17T05:32:34.940Z,50.90
2023-04-17T05:35:14.154Z,49.00
2023-04-17T05:37:42.079Z,50.10
2023-04-17T05:40:10.010Z,55.72
2023-04-17T05:42:37.238Z,55.92
2023-04-17T05:45:05.774Z,53.30
2023-04-17T05:47:33.358Z,48.63
2023-04-17T05:50:00.980Z,51.55
2023-04-17T05:52:29.827Z,47.28
2023-04-17T05:54:57.708Z,54.25
2023-04-17T05:57:25.748Z,44.38
2023-04-17T05:59:53.730Z,46.60
2023-04-17T06:02:21.692Z,49.17
2023-04-17T06:04:50.989Z,51.03
2023-04-17T06:07:18.761Z,54.83
2023-04-17T06:09:46.323Z,51.90
2023-04-17T06:12:16.212Z,45.45
2023-04-17T06:14:45.194Z,48.97
2023-04-17T06:17:12.645Z,49.67
2023-04-17T06:19:40.341Z,41.88
2023-04-17T06:22:07.618Z,45.45
2023-04-17T06:24:36.892Z,43.08
2023-04-17T06:27:04.614Z,37.65
2023-04-17T06:29:32.202Z,40.40
2023-04-17T06:31:59.525Z,38.30
2023-04-17T06:34:27.698Z,42.22
2023-04-17T06:36:56.081Z,43.38
2023-04-17T06:39:23.760Z,41.03
2023-04-17T06:41:52.207Z,44.03
2023-04-17T06:44:27.174Z,38.85
2023-04-17T06:46:55.349Z,43.78
2023-04-17T06:49:22.935Z,42.47
2023-04-17T06:51:51.422Z,41.67
2023-04-17T06:54:19.311Z,38.50
2023-04-17T06:56:46.760Z,38.10
2023-04-17T06:59:14.391Z,34.20
2023-04-17T07:01:42.317Z,41.83
2023-04-17T07:04:10.771Z,39.40
2023-04-17T07:06:39.512Z,45.47
2023-04-17T07:09:07.108Z,33.95
2023-04-17T07:11:34.336Z,36.95
2023-04-17T07:14:02.053Z,34.42
2023-04-17T07:16:29.276Z,38.42
2023-04-17T07:18:56.780Z,34.50
2023-04-17T07:21:24.117Z,39.05
2023-04-17T07:23:51.578Z,35.65
2023-04-17T07:26:18.780Z,36.63
2023-04-17T07:28:46.394Z,34.58
2023-04-17T07:31:13.678Z,36.45
2023-04-17T07:33:41.227Z,38.05
2023-04-17T07:36:11.334Z,41.65
2023-04-17T07:38:40.938Z,41.30
2023-04-17T07:41:08.363Z,36.63
2023-04-17T07:43:36.145Z,41.30
2023-04-17T07:46:03.584Z,35.55
2023-04-17T07:48:31.831Z,36.95
2023-04-17T07:51:02.561Z,35.05
2023-04-17T07:53:30.341Z,34.47
2023-04-17T07:55:58.534Z,36.53
2023-04-17T07:58:27.070Z,39.30
2023-04-17T08:00:54.464Z,37.85
2023-04-17T08:03:22.315Z,37.33
2023-04-17T08:05:52.139Z,35.38
2023-04-17T08:08:20.111Z,37.42
2023-04-17T08:10:47.450Z,43.13
2023-04-17T08:13:15.193Z,38.67
2023-04-17T08:15:43.982Z,38.35
2023-04-17T08:18:11.723Z,43.47
2023-04-17T08:20:39.087Z,40.25
2023-04-17T08:23:07.321Z,46.03
2023-04-17T08:25:35.087Z,39.00
2023-04-17T08:28:03.193Z,43.45
2023-04-17T08:30:30.494Z,44.63
2023-04-17T08:32:58.232Z,39.78
2023-04-17T08:35:26.669Z,40.90
2023-04-17T08:37:56.703Z,42.88
2023-04-17T08:40:26.255Z,40.67
2023-04-17T08:42:54.774Z,35.88
2023-04-17T08:45:26.785Z,37.95
2023-04-17T08:50:22.193Z,40.15
2023-04-17T08:52:52.108Z,31.98
2023-04-17T08:55:21.693Z,31.58
2023-04-17T08:57:59.508Z,31.58
2023-04-17T09:00:31.179Z,31.80
2023-04-17T09:03:00.390Z,43.47
2023-04-17T09:05:36.919Z,32.72
2023-04-17T09:08:24.066Z,31.25
2023-04-17T09:10:55.914Z,40.55
2023-04-17T09:16:10.305Z,34.78
2023-04-17T09:18:39.699Z,32.50
2023-04-17T09:21:08.373Z,31.73
2023-04-17T09:23:51.181Z,31.10
2023-04-17T09:26:21.329Z,30.98
2023-04-17T09:29:11.275Z,28.17
2023-04-17T09:31:41.130Z,45.70
2023-04-17T09:34:11.999Z,47.40
2023-04-17T09:36:42.134Z,32.75
2023-04-17T09:39:26.227Z,28.90
2023-04-17T09:42:04.286Z,24.92
2023-04-17T09:44:32.482Z,62.03
2023-04-17T09:47:01.658Z,26.98
2023-04-17T09:49:42.931Z,27.33
2023-04-17T09:52:12.125Z,25.88
2023-04-17T09:54:40.577Z,23.52
2023-04-17T09:57:09.721Z,24.88
2023-04-17T09:59:41.937Z,22.70
2023-04-17T10:04:41.451Z,19.38
2023-04-17T10:07:09.275Z,17.83
2023-04-17T10:09:37.538Z,17.95
2023-04-17T10:12:06.372Z,27.13
2023-04-17T10:14:37.586Z,18.88
2023-04-17T10:17:24.801Z,19.20
2023-04-17T10:19:52.961Z,20.67
2023-04-17T10:22:20.801Z,17.63
2023-04-17T10:24:51.927Z,19.13
2023-04-17T10:27:28.259Z,19.20
2023-04-17T10:30:00.220Z,18.23
2023-04-17T10:32:29.186Z,20.13
2023-04-17T10:35:06.549Z,18.30
2023-04-17T10:37:52.062Z,22.23
2023-04-17T10:40:27.245Z,19.83
2023-04-17T10:43:14.896Z,26.25
2023-04-17T10:45:53.000Z,19.30
2023-04-17T10:48:30.163Z,22.65
2023-04-17T10:50:58.313Z,19.33
2023-04-17T10:53:42.953Z,25.58
2023-04-17T10:56:18.685Z,21.63
2023-04-17T10:59:05.321Z,20.05
2023-04-17T11:01:39.987Z,25.60
2023-04-17T11:04:08.571Z,29.88
2023-04-17T11:06:40.622Z,21.45
2023-04-17T11:09:09.375Z,20.33
2023-04-17T11:11:44.209Z,25.65
2023-04-17T11:14:14.345Z,25.42
2023-04-17T11:16:46.578Z,19.75
2023-04-17T11:19:24.532Z,26.13
2023-04-17T11:21:53.824Z,27.70
2023-04-17T11:24:25.084Z,24.08
2023-04-17T11:26:53.847Z,21.10
2023-04-17T11:29:22.748Z,19.83
2023-04-17T11:31:54.432Z,20.63
2023-04-17T11:34:22.575Z,19.77
2023-04-17T11:36:50.718Z,19.48
2023-04-17T11:39:19.887Z,17.00
2023-04-17T11:41:48.233Z,19.05
2023-04-17T11:44:17.674Z,20.98
2023-04-17T11:46:55.985Z,18.60
2023-04-17T11:49:30.882Z,19.17
2023-04-17T11:52:02.362Z,25.77
2023-04-17T11:54:31.384Z,19.98
2023-04-17T11:57:03.298Z,20.10
2023-04-17T11:59:34.681Z,20.13
2023-04-17T12:02:03.663Z,23.08
2023-04-17T12:04:34.937Z,21.83
2023-04-17T12:07:03.536Z,21.48
2023-04-17T12:09:31.963Z,25.33
2023-04-17T12:12:07.248Z,23.55
2023-04-17T12:14:35.546Z,26.40
2023-04-17T12:17:03.607Z,27.70
2023-04-17T12:19:32.030Z,27.63
2023-04-17T12:22:00.336Z,33.25
2023-04-17T12:24:27.984Z,26.63
2023-04-17T12:26:56.420Z,29.30
2023-04-17T12:29:40.589Z,32.42
2023-04-17T12:32:12.310Z,28.10
2023-04-17T12:34:40.583Z,35.90
2023-04-17T12:37:09.066Z,34.08
2023-04-17T12:39:36.827Z,35.25
2023-04-17T12:42:05.111Z,37.80
2023-04-17T12:44:32.811Z,29.08
2023-04-17T12:47:00.906Z,28.15
2023-04-17T12:49:28.668Z,30.98
2023-04-17T12:51:56.681Z,35.78
2023-04-17T12:54:24.306Z,32.08
2023-04-17T12:56:52.398Z,34.70
2023-04-17T12:59:20.203Z,39.10
2023-04-17T13:01:48.175Z,45.20
2023-04-17T13:04:16.362Z,32.35
2023-04-17T13:06:44.785Z,45.33
2023-04-17T13:09:12.621Z,31.92
2023-04-17T13:11:40.959Z,31.00
2023-04-17T13:14:10.072Z,33.10
2023-04-17T13:16:38.216Z,36.83
2023-04-17T13:19:05.888Z,28.98
2023-04-17T13:21:33.759Z,34.63
2023-04-17T13:24:01.322Z,47.47
2023-04-17T13:26:29.398Z,38.03
2023-04-17T13:28:57.000Z,32.65
2023-04-17T13:31:26.919Z,34.08
2023-04-17T13:33:54.613Z,31.30
2023-04-17T13:36:22.699Z,36.47
2023-04-17T13:38:50.476Z,33.65
2023-04-17T13:41:18.420Z,33.13
2023-04-17T13:43:46.037Z,29.02
2023-04-17T13:46:16.266Z,26.40
2023-04-17T13:48:44.313Z,27.17
2023-04-17T13:51:12.640Z,28.60
2023-04-17T13:53:40.362Z,30.00
2023-04-17T13:56:08.354Z,27.35
2023-04-17T13:58:37.365Z,28.73
2023-04-17T14:01:05.340Z,24.42
2023-04-17T14:03:36.797Z,26.15
2023-04-17T14:06:06.169Z,25.75
2023-04-17T14:08:34.931Z,24.85
2023-04-17T14:11:02.872Z,24.50
2023-04-17T14:13:30.562Z,19.33
2023-04-17T14:15:58.725Z,24.92
2023-04-17T14:18:26.527Z,18.65
2023-04-17T14:20:55.488Z,36.60
2023-04-17T14:23:24.173Z,25.67
2023-04-17T14:25:52.453Z,19.48
2023-04-17T14:28:21.158Z,24.08
2023-04-17T14:30:49.217Z,22.58
2023-04-17T14:33:16.873Z,25.10
2023-04-17T14:35:45.091Z,26.30
2023-04-17T14:38:12.986Z,20.90
2023-04-17T14:40:41.378Z,24.08
2023-04-17T14:43:09.628Z,19.35
2023-04-17T14:45:37.757Z,21.08
2023-04-17T14:48:05.753Z,17.95
2023-04-17T14:50:33.840Z,25.50
2023-04-17T14:53:01.520Z,27.95
2023-04-17T14:55:30.061Z,19.50
2023-04-17T14:57:58.923Z,20.42
2023-04-17T15:00:27.137Z,23.48
2023-04-17T15:02:54.992Z,20.92
2023-04-17T15:05:23.173Z,21.45
2023-04-17T15:07:50.867Z,19.40
2023-04-17T15:10:18.933Z,16.10
2023-04-17T15:12:46.585Z,19.70
2023-04-17T15:15:14.574Z,21.45
2023-04-17T15:17:43.337Z,16.85
2023-04-17T15:20:12.013Z,25.27
2023-04-17T15:22:40.265Z,14.43
2023-04-17T15:25:08.420Z,10.68
2023-04-17T15:27:35.637Z,15.85
2023-04-17T15:30:06.777Z,19.40
2023-04-17T15:32:34.031Z,15.07
2023-04-17T15:35:02.246Z,22.77
2023-04-17T15:37:29.675Z,15.88
2023-04-17T15:39:58.721Z,19.30
2023-04-17T15:42:27.801Z,18.60
2023-04-17T15:44:55.772Z,17.95
2023-04-17T15:47:23.054Z,18.30
2023-04-17T15:49:50.940Z,15.02
2023-04-17T15:52:18.368Z,17.38
2023-04-17T15:54:46.103Z,18.30
2023-04-17T15:57:13.559Z,18.88
2023-04-17T15:59:43.255Z,20.95
2023-04-17T16:02:13.861Z,25.85
2023-04-17T16:04:43.756Z,19.42
2023-04-17T16:07:13.444Z,23.23
2023-04-17T16:09:42.000Z,20.02
2023-04-17T16:12:10.358Z,25.83
2023-04-17T16:14:41.210Z,23.30
2023-04-17T16:17:08.980Z,23.40
2023-04-17T16:19:37.468Z,30.98
2023-04-17T16:22:04.812Z,19.95
2023-04-17T16:24:35.689Z,23.10
2023-04-17T16:27:03.187Z,28.52
2023-04-17T16:29:30.847Z,25.88
2023-04-17T16:31:58.771Z,24.52
2023-04-17T16:34:26.577Z,25.10
2023-04-17T16:36:53.968Z,32.13
2023-04-17T16:39:21.785Z,26.10
2023-04-17T16:41:49.216Z,32.33
2023-04-17T16:44:16.696Z,29.60
2023-04-17T16:46:59.240Z,33.85
2023-04-17T16:49:31.579Z,32.28
2023-04-17T16:51:59.711Z,32.70
2023-04-17T16:54:27.478Z,36.95
2023-04-17T16:56:55.884Z,35.05
2023-04-17T16:59:24.346Z,41.45
2023-04-17T17:01:52.809Z,34.45
2023-04-17T17:04:21.332Z,39.55
2023-04-17T17:06:50.929Z,32.40
2023-04-17T17:09:20.488Z,33.85
2023-04-17T17:11:47.943Z,36.08
2023-04-17T17:14:16.176Z,30.88
2023-04-17T17:16:43.825Z,32.20
2023-04-17T17:19:11.741Z,30.95
2023-04-17T17:21:39.604Z,35.20
2023-04-17T17:24:07.989Z,37.50
2023-04-17T17:26:39.774Z,34.40
2023-04-17T17:31:34.847Z,39.38
2023-04-17T17:34:11.900Z,40.55
2023-04-17T17:36:48.563Z,45.70
2023-04-17T17:39:16.489Z,45.20
2023-04-17T17:41:45.192Z,39.50
2023-04-17T17:44:14.961Z,43.67
2023-04-17T17:46:42.668Z,39.22
2023-04-17T17:49:11.538Z,38.22
2023-04-17T17:51:38.958Z,34.30
2023-04-17T17:54:07.293Z,41.08
2023-04-17T17:56:34.958Z,41.42
2023-04-17T17:59:02.736Z,41.08
2023-04-17T18:01:30.320Z,78.60
2023-04-17T18:03:58.305Z,40.65
2023-04-17T18:06:26.707Z,34.58
2023-04-17T18:08:54.407Z,42.97
2023-04-17T18:11:21.760Z,35.97
2023-04-17T18:13:49.693Z,43.15
2023-04-17T18:16:17.202Z,33.15
2023-04-17T18:18:45.219Z,42.70
2023-04-17T18:21:13.109Z,36.58
2023-04-17T18:23:41.233Z,39.78
2023-04-17T18:26:08.669Z,42.15
2023-04-17T18:28:36.709Z,40.85
2023-04-17T18:31:03.898Z,40.63
2023-04-17T18:33:32.892Z,35.20
2023-04-17T18:36:00.494Z,37.97
2023-04-17T18:38:28.214Z,42.00
2023-04-17T18:40:57.490Z,37.58
2023-04-17T18:43:25.779Z,42.55
2023-04-17T18:45:53.811Z,44.47
2023-04-17T18:48:21.916Z,40.33
2023-04-17T18:50:49.662Z,36.83
2023-04-17T18:53:21.248Z,37.23
2023-04-17T18:55:48.874Z,37.63
2023-04-17T18:58:17.690Z,45.90
2023-04-17T19:00:45.285Z,38.38
2023-04-17T19:03:12.974Z,37.35
2023-04-17T19:05:40.846Z,57.28
2023-04-17T19:08:09.712Z,106.25
2023-04-17T19:10:40.187Z,79.50
2023-04-17T19:13:09.936Z,50.58
2023-04-17T19:15:38.034Z,44.88
2023-04-17T19:18:09.338Z,41.42
2023-04-17T19:20:37.087Z,40.00
2023-04-17T19:23:06.193Z,32.42
2023-04-17T19:25:33.809Z,36.58
2023-04-17T19:28:01.799Z,37.22
2023-04-17T19:30:29.251Z,30.05
2023-04-17T19:32:57.186Z,34.58
2023-04-17T19:35:24.731Z,34.17
2023-04-17T19:37:52.914Z,40.70
2023-04-17T19:40:24.881Z,35.65
2023-04-17T19:42:54.446Z,39.88
2023-04-17T19:45:24.221Z,31.83
2023-04-17T19:47:56.313Z,40.40
2023-04-17T19:50:27.098Z,36.50
2023-04-17T19:52:56.174Z,34.25
2023-04-17T19:55:23.590Z,32.25
2023-04-17T19:57:52.309Z,41.95
2023-04-17T20:00:20.276Z,53.92
2023-04-17T20:02:48.216Z,40.00
2023-04-17T20:05:16.948Z,49.03
2023-04-17T20:07:44.561Z,37.15
2023-04-17T20:10:13.016Z,45.20
2023-04-17T20:12:40.661Z,40.35
2023-04-17T20:15:08.719Z,34.88
2023-04-17T20:17:36.705Z,37.45
2023-04-17T20:20:04.636Z,36.72
2023-04-17T20:22:32.097Z,32.60
2023-04-17T20:24:59.306Z,46.53
2023-04-17T20:27:27.379Z,36.97
2023-04-17T20:29:54.845Z,38.30
2023-04-17T20:32:23.268Z,34.42
2023-04-17T20:34:50.825Z,28.48
2023-04-17T20:37:18.375Z,32.05
2023-04-17T20:39:45.667Z,29.35
2023-04-17T20:42:13.111Z,36.80
2023-04-17T20:44:40.401Z,26.65
2023-04-17T20:47:07.890Z,31.98
2023-04-17T20:49:35.208Z,33.88
2023-04-17T20:52:05.153Z,37.72
2023-04-17T20:54:32.408Z,29.65
2023-04-17T20:57:00.993Z,35.67
2023-04-17T20:59:28.503Z,37.92
2023-04-17T21:01:56.124Z,46.95
2023-04-17T21:04:23.535Z,38.47
2023-04-17T21:06:51.204Z,31.48
2023-04-17T21:09:18.415Z,29.13
2023-04-17T21:11:46.001Z,24.75
2023-04-17T21:14:15.241Z,28.15
2023-04-17T21:16:45.230Z,29.08
2023-04-17T21:19:12.821Z,29.58
2023-04-17T21:21:43.365Z,28.73
2023-04-17T21:24:13.489Z,30.88
2023-04-17T21:26:41.267Z,24.63
2023-04-17T21:29:08.690Z,24.40
2023-04-17T21:31:36.592Z,25.83
2023-04-17T21:34:04.017Z,31.92
2023-04-17T21:36:31.561Z,30.95
2023-04-17T21:38:58.865Z,24.77
2023-04-17T21:41:26.565Z,29.40
2023-04-17T21:43:54.291Z,26.92
2023-04-17T21:46:22.011Z,27.33
2023-04-17T21:48:49.384Z,29.95
2023-04-17T21:51:16.801Z,26.38
2023-04-17T21:53:44.084Z,28.88
2023-04-17T21:56:11.834Z,25.95
2023-04-17T21:58:39.130Z,25.77
2023-04-17T22:01:07.416Z,20.08
2023-04-17T22:03:35.235Z,23.67
2023-04-17T22:06:02.805Z,22.42
2023-04-17T22:08:30.247Z,26.45
2023-04-17T22:10:57.800Z,22.88
2023-04-17T22:13:26.798Z,19.35
2023-04-17T22:18:21.854Z,17.52
2023-04-17T22:20:49.337Z,21.83
2023-04-17T22:23:16.607Z,17.30
2023-04-17T22:25:44.040Z,21.52
2023-04-17T22:28:11.252Z,20.17
2023-04-17T22:30:38.855Z,20.17
2023-04-17T22:33:06.247Z,23.63
2023-04-17T22:35:33.842Z,22.58
2023-04-17T22:38:01.328Z,24.27
2023-04-17T22:40:30.153Z,21.33
2023-04-17T22:42:58.026Z,19.15
2023-04-17T22:45:25.514Z,17.55
2023-04-17T22:47:52.865Z,18.92
2023-04-17T22:50:21.833Z,18.80
2023-04-17T22:52:49.028Z,20.58
2023-04-17T22:55:16.636Z,19.23
2023-04-17T22:57:43.796Z,16.52
2023-04-17T23:00:11.744Z,17.48
2023-04-17T23:02:39.129Z,17.95
2023-04-17T23:05:07.394Z,20.05
2023-04-17T23:07:34.692Z,18.33
2023-04-17T23:10:02.204Z,21.77
2023-04-17T23:12:31.717Z,18.55
2023-04-17T23:14:59.273Z,21.63
2023-04-17T23:17:27.083Z,24.92
2023-04-17T23:19:54.600Z,24.60
2023-04-17T23:22:21.878Z,21.30
2023-04-17T23:24:49.322Z,20.00
2023-04-17T23:27:16.633Z,24.45
2023-04-17T23:29:44.191Z,20.17
2023-04-17T23:32:11.625Z,23.23
2023-04-17T23:34:39.327Z,24.92
2023-04-17T23:37:07.277Z,20.65
2023-04-17T23:39:34.923Z,25.98
2023-04-17T23:42:07.289Z,28.05
2023-04-17T23:44:35.595Z,26.33
2023-04-17T23:47:04.018Z,28.42
2023-04-17T23:49:31.641Z,30.63
2023-04-17T23:51:58.883Z,31.80
2023-04-17T23:54:26.424Z,31.30
2023-04-17T23:56:53.848Z,33.20
2023-04-17T23:59:21.865Z,29.10
